createdAt,value
2018-08-18T00:00:27.326Z,5.60
2018-08-18T00:05:30.986Z,6.20
2018-08-18T00:10:34.581Z,6.40
2018-08-18T00:15:38.270Z,6.27
2018-08-18T00:20:41.859Z,6.73
2018-08-18T00:25:45.422Z,5.83
2018-08-18T00:30:49.070Z,5.90
2018-08-18T00:35:52.683Z,6.00
2018-08-18T00:40:56.290Z,6.63
2018-08-18T00:45:59.925Z,6.40
2018-08-18T00:51:03.627Z,6.13
2018-08-18T00:56:07.461Z,6.20
2018-08-18T01:01:14.530Z,5.90
2018-08-18T01:06:19.738Z,5.97
2018-08-18T01:11:23.546Z,5.83
2018-08-18T01:16:27.239Z,6.20
2018-08-18T01:21:30.971Z,6.30
2018-08-18T01:26:34.502Z,7.03
2018-08-18T01:31:41.457Z,6.87
2018-08-18T01:36:45.012Z,6.80
2018-08-18T01:41:50.734Z,6.73
2018-08-18T01:46:55.010Z,6.60
2018-08-18T01:52:00.508Z,6.63
2018-08-18T01:57:09.109Z,6.53
2018-08-18T02:02:15.349Z,7.07
2018-08-18T02:07:26.626Z,6.93
2018-08-18T02:12:30.550Z,7.17
2018-08-18T02:17:38.083Z,7.00
2018-08-18T02:22:41.661Z,6.70
2018-08-18T02:27:45.298Z,6.93
2018-08-18T02:32:48.873Z,6.90
2018-08-18T02:37:52.475Z,6.10
2018-08-18T02:42:56.126Z,5.93
2018-08-18T02:48:10.741Z,7.00
2018-08-18T02:53:24.843Z,7.27
2018-08-18T02:58:28.372Z,7.70
2018-08-18T03:03:32.017Z,7.03
2018-08-18T03:08:35.731Z,7.47
2018-08-18T03:13:40.397Z,7.63
2018-08-18T03:18:47.302Z,6.83
2018-08-18T03:24:02.114Z,7.43
2018-08-18T03:29:05.739Z,8.83
2018-08-18T03:34:09.749Z,10.37
2018-08-18T03:39:23.257Z,6.93
2018-08-18T03:44:26.775Z,7.57
2018-08-18T03:49:30.474Z,9.53
2018-08-18T03:54:34.005Z,8.70
2018-08-18T03:59:37.576Z,7.03
2018-08-18T04:04:41.156Z,7.67
2018-08-18T04:09:44.826Z,9.20
2018-08-18T04:14:48.486Z,10.33
2018-08-18T04:19:52.130Z,11.60
2018-08-18T04:24:56.295Z,7.70
2018-08-18T04:30:00.875Z,9.93
2018-08-18T04:35:04.499Z,10.53
2018-08-18T04:40:08.092Z,13.47
2018-08-18T04:45:12.506Z,12.67
2018-08-18T04:50:16.079Z,11.70
2018-08-18T04:55:19.897Z,12.40
2018-08-18T05:00:23.539Z,12.20
2018-08-18T05:05:32.500Z,12.60
2018-08-18T05:10:37.472Z,13.10
2018-08-18T05:15:41.009Z,12.93
2018-08-18T05:20:44.739Z,11.43
2018-08-18T05:25:50.319Z,13.00
2018-08-18T05:30:54.486Z,12.93
2018-08-18T05:35:59.160Z,13.43
2018-08-18T05:41:04.091Z,13.97
2018-08-18T05:46:07.734Z,13.40
2018-08-18T05:51:11.437Z,14.13
2018-08-18T05:56:15.077Z,13.07
2018-08-18T06:01:37.120Z,13.03
2018-08-18T06:06:41.402Z,14.33
2018-08-18T06:11:45.026Z,13.90
2018-08-18T06:16:48.712Z,13.17
2018-08-18T06:21:54.679Z,13.83
2018-08-18T06:26:58.361Z,13.33
2018-08-18T06:32:03.578Z,12.50
2018-08-18T06:37:11.053Z,12.33
2018-08-18T06:42:25.781Z,13.33
2018-08-18T06:47:29.404Z,12.33
2018-08-18T06:52:33.119Z,13.87
2018-08-18T06:57:46.423Z,13.33
2018-08-18T07:02:52.175Z,13.23
2018-08-18T07:07:55.860Z,11.13
2018-08-18T07:13:00.982Z,10.30
2018-08-18T07:18:05.746Z,10.50
2018-08-18T07:23:09.717Z,8.50
2018-08-18T07:28:21.013Z,9.05
2018-08-18T07:33:24.744Z,9.35
2018-08-18T07:38:28.874Z,10.00
2018-08-18T07:43:35.374Z,9.55
2018-08-18T07:48:39.229Z,9.25
2018-08-18T07:53:42.910Z,8.35
2018-08-18T07:58:46.802Z,6.65
2018-08-18T08:03:50.539Z,8.43
2018-08-18T08:08:54.199Z,6.80
2018-08-18T08:13:59.043Z,6.70
2018-08-18T08:19:06.474Z,7.55
2018-08-18T08:24:11.070Z,6.25
2018-08-18T08:29:14.674Z,7.00
2018-08-18T08:34:19.778Z,6.53
2018-08-18T08:39:23.355Z,6.40
2018-08-18T08:44:28.162Z,6.10
2018-08-18T08:49:31.853Z,6.72
2018-08-18T08:54:36.657Z,5.80
2018-08-18T08:59:41.339Z,6.33
2018-08-18T09:04:49.726Z,6.50
2018-08-18T09:09:53.282Z,6.83
2018-08-18T09:15:00.924Z,6.70
2018-08-18T09:20:05.777Z,5.20
2018-08-18T09:25:15.744Z,5.70
2018-08-18T09:30:22.043Z,5.30
2018-08-18T09:35:26.795Z,5.42
2018-08-18T09:40:32.038Z,6.10
2018-08-18T09:45:35.744Z,4.62
2018-08-18T09:50:40.573Z,5.28
2018-08-18T09:55:44.270Z,5.87
2018-08-18T10:01:00.346Z,5.45
2018-08-18T10:06:05.056Z,5.60
2018-08-18T10:11:08.637Z,6.03
2018-08-18T10:16:17.869Z,5.17
2018-08-18T10:21:21.454Z,4.93
2018-08-18T10:26:31.798Z,7.53
2018-08-18T10:31:37.066Z,6.20
2018-08-18T10:36:40.785Z,6.40
2018-08-18T10:41:56.337Z,6.87
2018-08-18T10:47:16.418Z,6.83
2018-08-18T10:52:32.403Z,6.23
2018-08-18T10:57:48.169Z,9.17
2018-08-18T11:02:52.943Z,6.20
2018-08-18T11:08:06.121Z,6.37
2018-08-18T11:13:09.755Z,5.50
2018-08-18T11:18:13.599Z,5.33
2018-08-18T11:23:17.193Z,4.90
2018-08-18T11:28:21.478Z,6.53
2018-08-18T11:33:40.474Z,5.73
2018-08-18T11:38:45.683Z,6.80
2018-08-18T11:43:50.679Z,5.77
2018-08-18T11:48:54.285Z,3.20
2018-08-18T11:54:00.453Z,3.20
2018-08-18T11:59:24.325Z,3.30
2018-08-18T12:04:27.942Z,2.43
2018-08-18T12:09:31.543Z,3.47
2018-08-18T12:14:35.193Z,2.40
2018-08-18T12:19:39.847Z,2.47
2018-08-18T12:24:48.213Z,2.33
2018-08-18T12:29:52.082Z,2.53
2018-08-18T12:37:51.446Z,2.77
2018-08-18T12:43:01.645Z,2.40
2018-08-18T12:48:07.285Z,3.10
2018-08-18T12:53:13.057Z,15.77
2018-08-18T12:58:17.121Z,12.37
2018-08-18T13:03:22.823Z,2.63
2018-08-18T13:08:26.386Z,4.23
2018-08-18T13:13:30.399Z,3.07
2018-08-18T13:18:34.411Z,4.73
2018-08-18T13:23:39.926Z,3.63
2018-08-18T13:28:47.790Z,3.50
2018-08-18T13:33:51.473Z,3.10
2018-08-18T13:38:56.181Z,3.10
2018-08-18T13:44:00.812Z,2.93
2018-08-18T13:49:05.246Z,2.60
2018-08-18T13:54:12.403Z,2.50
2018-08-18T13:59:51.312Z,1.97
2018-08-18T14:04:54.882Z,2.23
2018-08-18T14:10:02.091Z,2.53
2018-08-18T14:15:05.908Z,2.60
2018-08-18T14:20:09.750Z,1.97
2018-08-18T14:25:13.386Z,2.10
2018-08-18T14:30:17.268Z,2.43
2018-08-18T14:35:21.210Z,1.90
2018-08-18T14:40:25.109Z,2.10
2018-08-18T14:45:28.919Z,1.57
2018-08-18T14:50:33.515Z,2.07
2018-08-18T14:55:37.914Z,2.10
2018-08-18T15:00:42.643Z,1.97
2018-08-18T15:05:46.293Z,1.90
2018-08-18T15:10:49.951Z,2.00
2018-08-18T15:15:55.596Z,1.73
2018-08-18T15:21:00.249Z,1.83
2018-08-18T15:26:07.369Z,2.40
2018-08-18T15:31:15.807Z,1.60
2018-08-18T15:36:32.730Z,2.20
2018-08-18T15:41:36.551Z,2.20
2018-08-18T15:46:40.845Z,2.03
2018-08-18T15:51:45.531Z,1.77
2018-08-18T15:56:53.834Z,1.97
2018-08-18T16:01:57.626Z,1.57
2018-08-18T16:07:02.378Z,1.80
2018-08-18T16:12:06.074Z,2.00
2018-08-18T16:17:09.834Z,1.70
2018-08-18T16:22:13.425Z,1.70
2018-08-18T16:27:17.223Z,1.93
2018-08-18T16:32:26.552Z,1.67
2018-08-18T16:37:32.219Z,1.90
2018-08-18T16:42:38.156Z,1.57
2018-08-18T16:47:52.118Z,1.70
2018-08-18T16:52:56.314Z,2.20
2018-08-18T16:58:01.958Z,1.57
2018-08-18T17:03:10.602Z,1.90
2018-08-18T17:08:14.262Z,1.80
2018-08-18T17:13:18.113Z,1.70
2018-08-18T17:18:23.706Z,1.80
2018-08-18T17:23:29.271Z,1.80
2018-08-18T17:28:33.505Z,1.80
2018-08-18T17:33:37.052Z,1.60
2018-08-18T17:38:40.862Z,1.87
2018-08-18T17:43:44.523Z,1.47
2018-08-18T17:48:53.484Z,1.77
2018-08-18T17:53:57.270Z,1.73
2018-08-18T17:59:01.041Z,1.77
2018-08-18T18:04:04.646Z,1.77
2018-08-18T18:09:08.441Z,1.90
2018-08-18T18:14:12.198Z,1.97
2018-08-18T18:19:16.889Z,8.87
2018-08-18T18:24:31.724Z,12.80
2018-08-18T18:29:36.457Z,2.00
2018-08-18T18:34:40.119Z,2.17
2018-08-18T18:39:55.781Z,2.47
2018-08-18T18:44:59.806Z,2.30
2018-08-18T18:50:03.409Z,2.10
2018-08-18T18:55:07.462Z,2.10
2018-08-18T19:00:11.186Z,1.80
2018-08-18T19:05:22.226Z,1.57
2018-08-18T19:10:25.890Z,1.60
2018-08-18T19:15:30.545Z,2.30
2018-08-18T19:20:36.252Z,3.60
2018-08-18T19:25:44.127Z,8.73
2018-08-18T19:30:47.891Z,4.67
2018-08-18T19:35:55.130Z,2.43
2018-08-18T19:40:58.750Z,2.30
2018-08-18T19:46:02.365Z,2.00
2018-08-18T19:51:11.403Z,2.07
2018-08-18T19:56:27.385Z,2.50
2018-08-18T20:01:30.928Z,1.90
2018-08-18T20:06:35.093Z,1.90
2018-08-18T20:11:38.779Z,2.10
2018-08-18T20:16:44.553Z,2.53
2018-08-18T20:21:49.806Z,2.20
2018-08-18T20:26:53.435Z,2.43
2018-08-18T20:32:01.707Z,2.60
2018-08-18T20:37:05.315Z,3.70
2018-08-18T20:42:10.181Z,3.53
2018-08-18T20:47:13.820Z,2.83
2018-08-18T20:52:19.486Z,2.70
2018-08-18T20:57:23.061Z,2.20
2018-08-18T21:02:33.543Z,2.43
2018-08-18T21:07:37.234Z,2.67
2018-08-18T21:12:48.681Z,2.70
2018-08-18T21:17:52.335Z,2.27
2018-08-18T21:22:57.754Z,2.10
2018-08-18T21:28:01.397Z,2.83
2018-08-18T21:33:04.971Z,3.80
2018-08-18T21:38:08.713Z,2.90
2018-08-18T21:43:23.731Z,2.67
2018-08-18T21:48:38.798Z,2.50
2018-08-18T21:53:43.322Z,2.30
2018-08-18T21:58:46.962Z,2.47
2018-08-18T22:03:51.906Z,2.40
2018-08-18T22:09:09.555Z,2.60
2018-08-18T22:14:18.972Z,2.53
2018-08-18T22:19:22.691Z,2.80
2018-08-18T22:24:26.553Z,2.60
2018-08-18T22:29:30.223Z,2.67
2018-08-18T22:34:39.131Z,3.10
2018-08-18T22:39:43.375Z,3.23
2018-08-18T22:44:48.074Z,3.10
2018-08-18T22:49:53.280Z,3.43
2018-08-18T22:54:57.083Z,3.63
2018-08-18T23:00:01.079Z,2.90
2018-08-18T23:05:04.934Z,3.33
2018-08-18T23:10:09.554Z,2.83
2018-08-18T23:15:13.159Z,2.67
2018-08-18T23:20:16.815Z,2.90
2018-08-18T23:25:32.162Z,2.83
2018-08-18T23:30:39.798Z,2.93
2018-08-18T23:35:43.338Z,2.90
2018-08-18T23:40:46.940Z,2.93
2018-08-18T23:45:50.590Z,3.57
2018-08-18T23:50:54.162Z,2.73
2018-08-18T23:55:59.369Z,3.37
